createdAt,value
2019-04-03T00:00:26.626Z,55.75
2019-04-03T00:02:55.614Z,54.12
2019-04-03T00:05:24.620Z,52.24
2019-04-03T00:07:53.568Z,55.00
2019-04-03T00:10:22.546Z,51.56
2019-04-03T00:12:51.422Z,55.91
2019-04-03T00:15:20.229Z,53.46
2019-04-03T00:17:49.048Z,52.46
2019-04-03T00:20:18.404Z,52.78
2019-04-03T00:22:47.944Z,52.50
2019-04-03T00:25:16.825Z,52.52
2019-04-03T00:27:45.747Z,52.57
2019-04-03T00:30:14.640Z,53.08
2019-04-03T00:32:43.569Z,52.56
2019-04-03T00:35:12.546Z,53.64
2019-04-03T00:37:41.676Z,53.64
2019-04-03T00:40:14.236Z,53.90
2019-04-03T00:42:44.074Z,55.96
2019-04-03T00:45:13.221Z,53.73
2019-04-03T00:47:42.135Z,54.31
2019-04-03T00:50:11.248Z,53.99
2019-04-03T00:52:40.128Z,54.05
2019-04-03T00:55:09.123Z,54.63
2019-04-03T00:57:38.078Z,54.51
2019-04-03T01:00:12.028Z,54.53
2019-04-03T01:02:40.953Z,54.22
2019-04-03T01:05:10.009Z,54.68
2019-04-03T01:07:38.853Z,54.37
2019-04-03T01:10:07.792Z,54.92
2019-04-03T01:12:36.607Z,55.05
2019-04-03T01:15:06.123Z,55.25
2019-04-03T01:17:35.217Z,55.57
2019-04-03T01:20:06.397Z,56.17
2019-04-03T01:22:37.260Z,55.92
2019-04-03T01:25:08.270Z,58.04
2019-04-03T01:27:37.228Z,57.29
2019-04-03T01:30:06.625Z,57.14
2019-04-03T01:32:35.434Z,57.00
2019-04-03T01:35:04.469Z,57.21
2019-04-03T01:37:33.422Z,58.08
2019-04-03T01:40:02.423Z,57.73
2019-04-03T01:42:31.422Z,57.93
2019-04-03T01:45:00.263Z,58.69
2019-04-03T01:47:29.107Z,58.47
2019-04-03T01:49:58.646Z,58.50
2019-04-03T01:52:28.046Z,58.87
2019-04-03T01:54:56.865Z,59.54
2019-04-03T01:57:25.718Z,59.35
2019-04-03T01:59:54.597Z,59.81
2019-04-03T02:02:23.554Z,59.88
2019-04-03T02:04:52.385Z,60.39
2019-04-03T02:07:25.316Z,60.90
2019-04-03T02:09:55.154Z,61.78
2019-04-03T02:12:24.011Z,61.63
2019-04-03T02:14:53.060Z,61.24
2019-04-03T02:17:23.906Z,61.88
2019-04-03T02:19:52.716Z,61.73
2019-04-03T02:22:21.638Z,62.03
2019-04-03T02:24:53.457Z,63.45
2019-04-03T02:27:23.516Z,63.77
2019-04-03T02:29:52.348Z,62.75
2019-04-03T02:32:23.276Z,65.48
2019-04-03T02:34:51.802Z,64.86
2019-04-03T02:37:20.690Z,65.55
2019-04-03T02:39:49.724Z,65.91
2019-04-03T02:42:19.643Z,65.77
2019-04-03T02:44:51.248Z,66.22
2019-04-03T02:47:18.949Z,68.53
2019-04-03T02:49:47.869Z,66.41
2019-04-03T02:52:16.855Z,66.12
2019-04-03T02:54:45.942Z,67.24
2019-04-03T02:57:17.514Z,67.17
2019-04-03T02:59:45.399Z,68.30
2019-04-03T03:02:14.606Z,66.57
2019-04-03T03:04:45.709Z,67.39
2019-04-03T03:07:14.461Z,67.45
2019-04-03T03:09:46.115Z,67.37
2019-04-03T03:12:13.980Z,68.51
2019-04-03T03:14:42.842Z,67.52
2019-04-03T03:17:12.624Z,67.04
2019-04-03T03:19:41.663Z,67.17
2019-04-03T03:22:10.582Z,68.55
2019-04-03T03:24:39.735Z,68.55
2019-04-03T03:27:10.124Z,68.18
2019-04-03T03:29:39.468Z,67.82
2019-04-03T03:32:17.475Z,67.04
2019-04-03T03:34:54.977Z,67.10
2019-04-03T03:37:12.606Z,67.35
2019-04-03T03:39:43.512Z,68.79
2019-04-03T03:42:11.720Z,69.43
2019-04-03T03:44:45.474Z,69.05
2019-04-03T03:47:11.961Z,68.38
2019-04-03T03:49:41.473Z,67.89
2019-04-03T03:52:13.211Z,68.30
2019-04-03T03:54:42.937Z,67.85
2019-04-03T03:57:12.147Z,68.13
2019-04-03T03:59:40.973Z,69.54
2019-04-03T04:02:11.052Z,69.09
2019-04-03T04:04:40.181Z,69.33
2019-04-03T04:07:09.119Z,70.43
2019-04-03T04:09:38.154Z,71.03
2019-04-03T04:12:07.544Z,69.84
2019-04-03T04:14:37.419Z,68.93
2019-04-03T04:17:09.581Z,69.39
2019-04-03T04:19:38.526Z,69.77
2019-04-03T04:22:07.817Z,68.77
2019-04-03T04:24:38.259Z,68.92
2019-04-03T04:27:07.128Z,68.82
2019-04-03T04:29:36.187Z,70.22
2019-04-03T04:32:05.306Z,71.57
2019-04-03T04:34:35.385Z,69.22
2019-04-03T04:37:04.322Z,68.37
2019-04-03T04:39:33.649Z,70.63
2019-04-03T04:42:04.640Z,69.84
2019-04-03T04:44:33.708Z,69.28
2019-04-03T04:47:02.559Z,69.42
2019-04-03T04:49:31.553Z,69.08
2019-04-03T04:52:00.436Z,69.58
2019-04-03T04:54:30.530Z,68.69
2019-04-03T04:57:00.227Z,68.60
2019-04-03T04:59:32.071Z,67.77
2019-04-03T05:02:00.819Z,70.06
2019-04-03T05:04:29.711Z,70.07
2019-04-03T05:07:00.192Z,69.04
2019-04-03T05:09:29.207Z,69.99
2019-04-03T05:12:00.415Z,69.46
2019-04-03T05:14:29.376Z,68.62
2019-04-03T05:16:58.257Z,68.55
2019-04-03T05:19:27.063Z,68.07
2019-04-03T05:21:56.027Z,69.08
2019-04-03T05:24:24.912Z,68.52
2019-04-03T05:26:53.839Z,68.90
2019-04-03T05:29:22.955Z,68.22
2019-04-03T05:31:52.133Z,68.79
2019-04-03T05:34:21.118Z,68.03
2019-04-03T05:36:52.728Z,67.97
2019-04-03T05:39:23.939Z,68.91
2019-04-03T05:41:53.521Z,67.92
2019-04-03T05:44:24.061Z,67.73
2019-04-03T05:46:54.374Z,67.50
2019-04-03T05:49:23.396Z,67.59
2019-04-03T05:51:52.398Z,68.42
2019-04-03T05:54:21.426Z,67.35
2019-04-03T05:56:52.089Z,67.36
2019-04-03T05:59:21.319Z,67.71
2019-04-03T06:01:50.216Z,67.91
2019-04-03T06:04:19.102Z,68.00
2019-04-03T06:06:48.044Z,67.73
2019-04-03T06:09:16.933Z,66.49
2019-04-03T06:11:45.811Z,65.14
2019-04-03T06:14:14.712Z,64.89
2019-04-03T06:16:43.622Z,65.65
2019-04-03T06:19:12.518Z,65.01
2019-04-03T06:21:45.642Z,65.22
2019-04-03T06:24:14.229Z,65.59
2019-04-03T06:26:44.876Z,65.09
2019-04-03T06:29:13.944Z,64.95
2019-04-03T06:31:43.210Z,65.36
2019-04-03T06:34:12.083Z,64.96
2019-04-03T06:36:41.108Z,65.42
2019-04-03T06:39:10.142Z,65.07
2019-04-03T06:41:41.654Z,64.06
2019-04-03T06:44:09.925Z,64.24
2019-04-03T06:46:39.016Z,64.20
2019-04-03T06:49:08.893Z,64.07
2019-04-03T06:51:37.963Z,64.88
2019-04-03T06:54:08.236Z,65.19
2019-04-03T06:56:40.011Z,64.18
2019-04-03T06:59:08.325Z,63.92
2019-04-03T07:01:37.338Z,63.37
2019-04-03T07:04:07.174Z,63.68
2019-04-03T07:06:36.527Z,64.37
2019-04-03T07:09:07.494Z,63.68
2019-04-03T07:11:36.534Z,62.33
2019-04-03T07:14:05.382Z,62.65
2019-04-03T07:16:34.161Z,61.46
2019-04-03T07:19:03.156Z,61.06
2019-04-03T07:21:32.480Z,59.95
2019-04-03T07:24:01.429Z,59.92
2019-04-03T07:26:30.352Z,61.42
2019-04-03T07:28:59.526Z,61.75
2019-04-03T07:31:28.597Z,60.65
2019-04-03T07:33:58.633Z,61.40
2019-04-03T07:36:28.160Z,60.58
2019-04-03T07:38:58.556Z,60.00
2019-04-03T07:41:29.736Z,57.94
2019-04-03T07:43:59.341Z,56.07
2019-04-03T07:46:28.424Z,56.01
2019-04-03T07:48:59.889Z,54.05
2019-04-03T07:51:28.061Z,54.95
2019-04-03T07:53:57.259Z,53.16
2019-04-03T07:56:27.258Z,52.98
2019-04-03T07:58:56.218Z,54.97
2019-04-03T08:01:25.336Z,54.92
2019-04-03T08:03:54.210Z,55.14
2019-04-03T08:06:23.606Z,55.48
2019-04-03T08:09:06.506Z,54.51
2019-04-03T08:11:24.631Z,52.37
2019-04-03T08:13:53.617Z,54.77
2019-04-03T08:16:22.890Z,51.67
2019-04-03T08:18:52.479Z,52.84
2019-04-03T08:21:21.920Z,50.95
2019-04-03T08:23:50.794Z,49.52
2019-04-03T08:26:20.009Z,47.66
2019-04-03T08:28:49.118Z,49.54
2019-04-03T08:31:18.624Z,49.22
2019-04-03T08:33:47.610Z,49.51
2019-04-03T08:36:24.668Z,48.39
2019-04-03T08:38:47.543Z,49.73
2019-04-03T08:41:16.540Z,50.72
2019-04-03T08:43:45.340Z,50.27
2019-04-03T08:46:14.202Z,50.50
2019-04-03T08:48:43.044Z,49.74
2019-04-03T08:51:12.440Z,48.53
2019-04-03T08:53:41.370Z,48.97
2019-04-03T08:56:10.384Z,47.11
2019-04-03T08:58:39.304Z,48.73
2019-04-03T09:01:10.753Z,48.20
2019-04-03T09:03:39.964Z,47.96
2019-04-03T09:06:09.142Z,45.39
2019-04-03T09:08:38.665Z,44.67
2019-04-03T09:11:09.566Z,44.59
2019-04-03T09:13:38.701Z,46.08
2019-04-03T09:16:10.100Z,44.67
2019-04-03T09:18:38.792Z,45.28
2019-04-03T09:21:10.470Z,48.35
2019-04-03T09:23:39.292Z,44.46
2019-04-03T09:26:08.109Z,45.79
2019-04-03T09:28:37.185Z,43.21
2019-04-03T09:31:06.246Z,45.27
2019-04-03T09:33:35.285Z,42.88
2019-04-03T09:36:04.593Z,43.09
2019-04-03T09:38:35.498Z,45.05
2019-04-03T09:41:05.315Z,43.51
2019-04-03T09:43:34.413Z,45.36
2019-04-03T09:46:03.542Z,43.99
2019-04-03T09:48:32.694Z,43.93
2019-04-03T09:51:01.728Z,42.78
2019-04-03T09:53:30.750Z,43.71
2019-04-03T09:55:59.707Z,42.59
2019-04-03T09:58:28.720Z,43.81
2019-04-03T10:00:57.561Z,42.25
2019-04-03T10:03:26.480Z,43.07
2019-04-03T10:05:55.358Z,41.38
2019-04-03T10:08:24.280Z,42.96
2019-04-03T10:10:54.953Z,42.09
2019-04-03T10:13:26.215Z,39.78
2019-04-03T10:15:55.362Z,41.08
2019-04-03T10:18:24.179Z,41.70
2019-04-03T10:20:54.189Z,38.97
2019-04-03T10:23:29.044Z,40.04
2019-04-03T10:25:58.368Z,39.58
2019-04-03T10:28:27.597Z,40.52
2019-04-03T10:30:57.173Z,41.13
2019-04-03T10:33:32.726Z,41.16
2019-04-03T10:36:02.219Z,40.61
2019-04-03T10:38:31.623Z,39.42
2019-04-03T10:41:00.765Z,39.49
2019-04-03T10:43:31.540Z,40.70
2019-04-03T10:46:00.992Z,41.48
2019-04-03T10:48:35.880Z,40.50
2019-04-03T10:51:05.342Z,41.00
2019-04-03T10:53:35.994Z,40.77
2019-04-03T10:56:07.114Z,40.63
2019-04-03T10:58:38.079Z,41.06
2019-04-03T11:01:11.249Z,39.58
2019-04-03T11:03:42.748Z,39.44
2019-04-03T11:06:11.663Z,37.67
2019-04-03T11:08:40.560Z,40.68
2019-04-03T11:11:09.504Z,38.30
2019-04-03T11:13:44.989Z,37.45
2019-04-03T11:16:16.804Z,36.53
2019-04-03T11:18:58.035Z,37.27
2019-04-03T11:21:16.446Z,37.96
2019-04-03T11:23:45.960Z,40.92
2019-04-03T11:26:17.764Z,39.25
2019-04-03T11:28:45.933Z,37.31
2019-04-03T11:31:24.935Z,38.35
2019-04-03T11:33:51.422Z,36.31
2019-04-03T11:36:25.988Z,35.25
2019-04-03T11:38:53.980Z,34.71
2019-04-03T11:41:23.888Z,35.70
2019-04-03T11:43:53.503Z,35.05
2019-04-03T11:46:22.942Z,33.46
2019-04-03T11:48:52.277Z,34.87
2019-04-03T11:51:21.670Z,32.92
2019-04-03T11:53:51.258Z,33.00
2019-04-03T11:56:25.666Z,33.47
2019-04-03T11:58:55.340Z,32.97
2019-04-03T12:01:24.559Z,33.71
2019-04-03T12:03:54.034Z,33.30
2019-04-03T12:06:23.078Z,32.73
2019-04-03T12:08:52.422Z,34.13
2019-04-03T12:11:24.803Z,34.73
2019-04-03T12:13:54.260Z,34.38
2019-04-03T12:16:24.784Z,33.87
2019-04-03T12:18:53.899Z,32.92
2019-04-03T12:21:26.470Z,33.04
2019-04-03T12:23:57.778Z,34.65
2019-04-03T12:26:26.483Z,32.42
2019-04-03T12:28:59.410Z,34.43
2019-04-03T12:31:28.829Z,32.74
2019-04-03T12:34:04.513Z,33.51
2019-04-03T12:36:34.683Z,31.59
2019-04-03T12:39:04.209Z,30.49
2019-04-03T12:41:37.904Z,32.15
2019-04-03T12:44:11.848Z,31.35
2019-04-03T12:46:42.430Z,29.53
2019-04-03T12:49:11.432Z,30.56
2019-04-03T12:51:42.385Z,30.61
2019-04-03T12:54:13.276Z,29.78
2019-04-03T12:56:42.683Z,28.52
2019-04-03T12:59:11.723Z,27.55
2019-04-03T13:01:40.972Z,30.42
2019-04-03T13:04:10.417Z,28.43
2019-04-03T13:06:41.862Z,27.34
2019-04-03T13:09:11.127Z,27.97
2019-04-03T13:11:49.930Z,27.54
2019-04-03T13:14:25.101Z,27.49
2019-04-03T13:16:50.402Z,28.42
2019-04-03T13:19:19.844Z,26.26
2019-04-03T13:21:54.000Z,26.91
2019-04-03T13:24:23.534Z,27.39
2019-04-03T13:26:52.757Z,27.24
2019-04-03T13:29:28.658Z,26.78
2019-04-03T13:31:57.971Z,26.89
2019-04-03T13:34:26.843Z,27.57
2019-04-03T13:36:56.296Z,26.80
2019-04-03T13:39:25.273Z,27.62
2019-04-03T13:41:54.321Z,27.65
2019-04-03T13:44:26.065Z,26.66
2019-04-03T13:46:57.559Z,26.61
2019-04-03T13:49:29.331Z,27.10
2019-04-03T13:52:01.697Z,26.87
2019-04-03T13:54:28.216Z,26.04
2019-04-03T13:56:58.902Z,25.23
2019-04-03T13:59:37.036Z,25.72
2019-04-03T14:02:14.037Z,26.00
2019-04-03T14:04:43.942Z,25.52
2019-04-03T14:07:15.975Z,25.89
2019-04-03T14:09:50.211Z,28.38
2019-04-03T14:12:17.171Z,26.58
2019-04-03T14:14:47.841Z,26.58
2019-04-03T14:17:17.223Z,27.03
2019-04-03T14:19:50.895Z,27.09
2019-04-03T14:22:16.994Z,26.14
2019-04-03T14:24:51.482Z,27.87
2019-04-03T14:27:23.179Z,27.65
2019-04-03T14:29:47.733Z,29.79
2019-04-03T14:32:26.511Z,27.23
2019-04-03T14:35:04.872Z,25.89
2019-04-03T14:37:27.257Z,27.26
2019-04-03T14:40:00.569Z,27.92
2019-04-03T14:42:29.865Z,25.38
2019-04-03T14:45:01.367Z,26.32
2019-04-03T14:47:31.098Z,25.52
2019-04-03T14:50:00.673Z,26.33
2019-04-03T14:52:29.711Z,25.65
2019-04-03T14:55:04.881Z,25.77
2019-04-03T14:57:34.952Z,25.14
2019-04-03T15:00:23.027Z,26.79
2019-04-03T15:02:41.432Z,26.06
2019-04-03T15:05:11.942Z,26.03
2019-04-03T15:07:50.922Z,26.40
2019-04-03T15:10:31.155Z,28.00
2019-04-03T15:13:04.034Z,25.44
2019-04-03T15:15:33.321Z,25.46
2019-04-03T15:18:02.189Z,25.37
2019-04-03T15:20:32.920Z,25.64
2019-04-03T15:23:04.146Z,25.75
2019-04-03T15:25:32.642Z,25.56
2019-04-03T15:28:01.874Z,25.53
2019-04-03T15:30:30.753Z,25.73
2019-04-03T15:32:59.737Z,25.35
2019-04-03T15:35:29.841Z,25.04
2019-04-03T15:37:59.306Z,25.17
2019-04-03T15:40:28.365Z,25.58
2019-04-03T15:42:57.254Z,25.00
2019-04-03T15:45:26.298Z,25.45
2019-04-03T15:47:57.653Z,25.00
2019-04-03T15:50:28.435Z,24.72
2019-04-03T15:52:58.130Z,24.89
2019-04-03T15:55:27.284Z,24.27
2019-04-03T15:57:56.110Z,24.96
2019-04-03T16:00:25.735Z,25.89
2019-04-03T16:02:54.884Z,24.64
2019-04-03T16:05:23.774Z,24.42
2019-04-03T16:07:52.798Z,24.94
2019-04-03T16:10:22.738Z,25.13
2019-04-03T16:12:52.565Z,24.92
2019-04-03T16:15:22.738Z,25.82
2019-04-03T16:17:52.304Z,25.70
2019-04-03T16:20:21.413Z,26.58
2019-04-03T16:22:50.490Z,26.31
2019-04-03T16:25:19.601Z,27.21
2019-04-03T16:27:48.869Z,26.93
2019-04-03T16:30:19.309Z,27.40
2019-04-03T16:32:48.530Z,27.40
2019-04-03T16:35:17.532Z,27.53
2019-04-03T16:37:46.282Z,27.53
2019-04-03T16:40:15.917Z,28.62
2019-04-03T16:42:47.464Z,29.84
2019-04-03T16:45:15.632Z,28.79
2019-04-03T16:47:45.839Z,30.20
2019-04-03T16:50:14.954Z,29.73
2019-04-03T16:52:47.330Z,30.10
2019-04-03T16:55:16.743Z,30.52
2019-04-03T16:57:45.718Z,30.04
2019-04-03T17:00:14.719Z,30.25
2019-04-03T17:02:43.762Z,30.74
2019-04-03T17:05:12.658Z,31.70
2019-04-03T17:07:41.885Z,31.55
2019-04-03T17:10:11.130Z,31.26
2019-04-03T17:12:40.185Z,31.68
2019-04-03T17:15:10.103Z,32.98
2019-04-03T17:17:39.248Z,31.83
2019-04-03T17:20:09.695Z,32.21
2019-04-03T17:22:41.378Z,32.30
2019-04-03T17:25:11.672Z,31.70
2019-04-03T17:27:40.561Z,31.91
2019-04-03T17:30:10.292Z,32.39
2019-04-03T17:32:39.186Z,32.91
2019-04-03T17:35:08.753Z,32.37
2019-04-03T17:37:38.439Z,32.98
2019-04-03T17:40:08.820Z,33.01
2019-04-03T17:42:39.284Z,33.57
2019-04-03T17:45:09.298Z,33.92
2019-04-03T17:47:38.243Z,33.41
2019-04-03T17:50:07.357Z,33.92
2019-04-03T17:52:37.035Z,33.53
2019-04-03T17:55:09.524Z,34.40
2019-04-03T17:57:37.805Z,33.54
2019-04-03T18:00:09.507Z,34.70
2019-04-03T18:02:38.982Z,34.16
2019-04-03T18:05:09.367Z,34.71
2019-04-03T18:07:38.627Z,35.20
2019-04-03T18:10:10.651Z,35.38
2019-04-03T18:12:38.598Z,34.98
2019-04-03T18:15:08.720Z,35.82
2019-04-03T18:17:37.651Z,35.50
2019-04-03T18:20:07.491Z,36.10
2019-04-03T18:22:37.132Z,35.76
2019-04-03T18:25:08.291Z,36.21
2019-04-03T18:27:37.516Z,36.29
2019-04-03T18:30:11.093Z,38.29
2019-04-03T18:32:38.385Z,36.16
2019-04-03T18:35:07.986Z,36.85
2019-04-03T18:37:36.996Z,37.30
2019-04-03T18:40:09.629Z,36.64
2019-04-03T18:42:38.584Z,38.36
2019-04-03T18:45:08.050Z,38.23
2019-04-03T18:47:41.400Z,37.52
2019-04-03T18:50:10.063Z,38.11
2019-04-03T18:52:38.862Z,37.76
2019-04-03T18:55:08.421Z,38.14
2019-04-03T18:57:37.270Z,37.97
2019-04-03T19:00:07.108Z,38.07
2019-04-03T19:02:38.895Z,38.41
2019-04-03T19:05:10.123Z,40.46
2019-04-03T19:07:40.679Z,40.64
2019-04-03T19:10:11.874Z,43.11
2019-04-03T19:12:43.094Z,40.50
2019-04-03T19:15:13.462Z,39.48
2019-04-03T19:17:42.305Z,39.52
2019-04-03T19:20:11.592Z,39.87
2019-04-03T19:22:40.413Z,40.42
2019-04-03T19:25:14.165Z,43.63
2019-04-03T19:27:43.135Z,40.19
2019-04-03T19:30:12.228Z,43.32
2019-04-03T19:32:43.264Z,43.45
2019-04-03T19:35:12.069Z,43.92
2019-04-03T19:37:40.971Z,44.77
2019-04-03T19:40:10.597Z,44.06
2019-04-03T19:42:39.662Z,45.98
2019-04-03T19:45:09.345Z,42.81
2019-04-03T19:47:38.309Z,43.45
2019-04-03T19:50:07.897Z,49.40
2019-04-03T19:52:37.384Z,50.42
2019-04-03T19:55:08.745Z,45.12
2019-04-03T19:57:37.799Z,47.28
2019-04-03T20:00:07.398Z,45.17
2019-04-03T20:02:38.187Z,46.57
2019-04-03T20:05:08.091Z,44.81
2019-04-03T20:07:37.187Z,46.64
2019-04-03T20:10:09.036Z,49.21
2019-04-03T20:12:40.078Z,45.54
2019-04-03T20:15:09.253Z,46.45
2019-04-03T20:17:38.414Z,45.75
2019-04-03T20:20:07.722Z,45.26
2019-04-03T20:22:42.091Z,45.46
2019-04-03T20:25:09.743Z,52.42
2019-04-03T20:27:38.721Z,50.64
2019-04-03T20:30:08.213Z,55.53
2019-04-03T20:32:40.038Z,53.76
2019-04-03T20:35:08.003Z,60.94
2019-04-03T20:37:36.990Z,52.80
2019-04-03T20:40:07.126Z,50.59
2019-04-03T20:42:36.050Z,50.02
2019-04-03T20:45:05.736Z,55.99
2019-04-03T20:47:34.767Z,55.15
2019-04-03T20:50:06.679Z,53.15
2019-04-03T20:52:36.015Z,51.23
2019-04-03T20:55:05.553Z,51.53
2019-04-03T20:57:34.648Z,51.52
2019-04-03T21:00:03.678Z,50.01
2019-04-03T21:02:33.893Z,49.70
2019-04-03T21:05:02.889Z,49.50
2019-04-03T21:07:31.728Z,49.48
2019-04-03T21:10:01.504Z,51.41
2019-04-03T21:12:31.372Z,50.66
2019-04-03T21:15:08.229Z,53.26
2019-04-03T21:17:30.754Z,52.42
2019-04-03T21:19:59.618Z,54.32
2019-04-03T21:22:30.244Z,57.36
2019-04-03T21:24:59.030Z,55.02
2019-04-03T21:27:27.922Z,57.12
2019-04-03T21:29:58.238Z,57.42
2019-04-03T21:32:28.894Z,57.16
2019-04-03T21:34:59.197Z,59.01
2019-04-03T21:37:28.069Z,58.83
2019-04-03T21:39:56.906Z,60.09
2019-04-03T21:42:26.972Z,60.95
2019-04-03T21:44:56.294Z,61.90
2019-04-03T21:47:25.003Z,62.66
2019-04-03T21:49:53.960Z,63.93
2019-04-03T21:52:23.758Z,63.64
2019-04-03T21:54:52.459Z,64.15
2019-04-03T21:57:21.234Z,65.05
2019-04-03T21:59:50.003Z,64.94
2019-04-03T22:02:18.864Z,65.15
2019-04-03T22:04:47.593Z,66.71
2019-04-03T22:07:16.479Z,66.59
2019-04-03T22:09:45.445Z,66.54
2019-04-03T22:12:14.210Z,67.38
2019-04-03T22:14:43.466Z,66.83
2019-04-03T22:17:12.345Z,67.32
2019-04-03T22:19:41.147Z,67.46
2019-04-03T22:22:10.110Z,68.11
2019-04-03T22:24:38.940Z,68.47
2019-04-03T22:27:07.746Z,68.80
2019-04-03T22:29:36.674Z,69.46
2019-04-03T22:32:05.697Z,69.76
2019-04-03T22:34:37.063Z,69.73
2019-04-03T22:37:05.806Z,68.98
2019-04-03T22:39:34.619Z,69.39
2019-04-03T22:42:03.390Z,69.29
2019-04-03T22:44:32.304Z,69.07
2019-04-03T22:47:01.274Z,68.74
2019-04-03T22:49:30.270Z,70.17
2019-04-03T22:51:59.016Z,68.82
2019-04-03T22:54:27.900Z,69.82
2019-04-03T22:56:56.821Z,69.40
2019-04-03T22:59:25.804Z,69.39
2019-04-03T23:01:54.633Z,70.03
2019-04-03T23:04:27.317Z,70.01
2019-04-03T23:06:56.061Z,69.92
2019-04-03T23:09:25.552Z,70.20
2019-04-03T23:11:54.591Z,71.04
2019-04-03T23:14:23.376Z,70.78
2019-04-03T23:16:52.147Z,70.64
2019-04-03T23:19:23.919Z,70.30
2019-04-03T23:21:52.883Z,71.19
2019-04-03T23:24:23.649Z,71.06
2019-04-03T23:26:52.517Z,71.18
2019-04-03T23:29:21.366Z,71.39
2019-04-03T23:31:50.261Z,71.74
2019-04-03T23:34:19.627Z,71.06
2019-04-03T23:36:48.460Z,70.79
2019-04-03T23:39:17.332Z,71.33
2019-04-03T23:41:49.199Z,70.51
2019-04-03T23:44:21.232Z,70.73
2019-04-03T23:46:50.120Z,71.08
2019-04-03T23:49:20.942Z,71.03
2019-04-03T23:51:49.714Z,70.79
2019-04-03T23:54:18.508Z,70.30
2019-04-03T23:56:47.379Z,70.33
2019-04-03T23:59:16.215Z,71.70
